Terminal Aerodrome Forecast
Issued by NWS

Home | Current Version | Previous Version | Graphics & Text | Print | Product List | Glossary On
Versions: 1 2 3 4 5 6 7 8 9 10 11 12 13 14 15 16 17
127
FTUS43 KOAX 031120
TAFCDR
TAF
KCDR 031120Z 0312/0412 22009KT P6SM BKN100
     FM031500 28012G23KT P6SM SCT100
     FM040200 27009KT P6SM SCT100=

USA.gov is the U.S. government's official web portal to all federal, state and local government web resources and services.